createdAt,value
2023-05-21T00:02:11.734Z,13.25
2023-05-21T00:04:57.830Z,13.30
2023-05-21T00:10:52.708Z,13.65
2023-05-21T00:16:55.296Z,13.20
2023-05-21T00:19:42.906Z,12.23
2023-05-21T00:22:28.883Z,10.07
2023-05-21T00:25:15.076Z,12.82
2023-05-21T00:28:07.837Z,11.57
2023-05-21T00:31:01.324Z,11.40
2023-05-21T00:36:50.132Z,10.45
2023-05-21T00:42:57.062Z,10.93
2023-05-21T00:45:49.653Z,9.43
2023-05-21T00:52:01.343Z,10.10
2023-05-21T00:54:54.132Z,15.25
2023-05-21T00:57:45.911Z,14.25
2023-05-21T01:00:40.537Z,15.68
2023-05-21T01:03:38.392Z,15.50
2023-05-21T01:06:34.515Z,17.73
2023-05-21T01:12:43.999Z,14.48
2023-05-21T01:15:38.230Z,15.60
2023-05-21T01:18:35.049Z,26.40
2023-05-21T01:21:30.211Z,18.63
2023-05-21T01:27:18.224Z,17.67
2023-05-21T01:33:35.868Z,28.95
2023-05-21T01:40:22.095Z,31.20
2023-05-21T01:43:15.289Z,24.60
2023-05-21T01:46:08.734Z,28.83
2023-05-21T01:49:01.710Z,25.35
2023-05-21T01:51:55.310Z,22.33
2023-05-21T01:54:54.388Z,26.55
2023-05-21T01:57:48.082Z,24.70
2023-05-21T02:00:40.856Z,24.90
2023-05-21T02:03:34.595Z,25.60
2023-05-21T02:06:28.116Z,26.00
2023-05-21T02:09:20.923Z,21.35
2023-05-21T02:12:51.160Z,25.17
2023-05-21T02:15:44.896Z,22.38
2023-05-21T02:18:39.361Z,27.33
2023-05-21T02:21:32.000Z,30.02
2023-05-21T02:24:18.833Z,33.78
2023-05-21T02:27:13.614Z,27.20
2023-05-21T02:30:07.806Z,29.40
2023-05-21T02:33:02.761Z,30.33
2023-05-21T02:35:55.736Z,32.42
2023-05-21T02:38:46.553Z,29.00
2023-05-21T02:41:38.916Z,32.17
2023-05-21T02:44:31.997Z,29.63
2023-05-21T02:47:25.495Z,31.23
2023-05-21T02:50:22.274Z,28.17
2023-05-21T02:56:33.216Z,37.95
2023-05-21T03:02:42.329Z,37.08
2023-05-21T03:08:48.664Z,33.00
2023-05-21T03:11:41.234Z,38.90
2023-05-21T03:14:33.718Z,40.03
2023-05-21T03:17:27.056Z,30.63
2023-05-21T03:20:20.024Z,31.67
2023-05-21T03:23:16.374Z,28.40
2023-05-21T03:26:11.454Z,33.63
2023-05-21T03:29:03.862Z,35.15
2023-05-21T03:31:57.648Z,38.70
2023-05-21T03:34:50.966Z,41.78
2023-05-21T03:37:45.045Z,32.22
2023-05-21T03:40:37.700Z,33.88
2023-05-21T03:43:32.371Z,36.08
2023-05-21T03:46:26.185Z,36.10
2023-05-21T03:49:25.748Z,41.13
2023-05-21T03:52:20.703Z,37.07
2023-05-21T03:58:47.338Z,31.33
2023-05-21T04:01:39.948Z,31.55
2023-05-21T04:07:50.407Z,31.00
2023-05-21T04:10:43.035Z,27.50
2023-05-21T04:16:49.866Z,27.50
2023-05-21T04:22:55.328Z,28.20
2023-05-21T04:25:50.543Z,25.38
2023-05-21T04:28:45.744Z,20.55
2023-05-21T04:31:40.137Z,20.05
2023-05-21T04:34:34.649Z,19.08
2023-05-21T04:37:28.069Z,17.53
2023-05-21T04:40:24.258Z,13.15
2023-05-21T04:43:17.218Z,13.55
2023-05-21T04:46:10.819Z,11.25
2023-05-21T04:49:04.426Z,12.25
2023-05-21T04:51:59.033Z,10.35
2023-05-21T04:54:53.928Z,9.63
2023-05-21T04:57:46.828Z,7.28
2023-05-21T05:00:42.200Z,7.47
2023-05-21T05:03:34.661Z,10.07
2023-05-21T05:06:27.080Z,8.98
2023-05-21T05:09:24.987Z,8.07
2023-05-21T05:12:18.009Z,7.57
2023-05-21T05:15:11.654Z,8.57
2023-05-21T05:17:58.390Z,7.45
2023-05-21T05:20:50.649Z,7.18
2023-05-21T05:23:44.236Z,6.82
2023-05-21T05:26:38.628Z,7.70
2023-05-21T05:29:30.905Z,7.22
2023-05-21T05:32:24.530Z,6.97
2023-05-21T05:35:17.526Z,6.35
2023-05-21T05:41:30.839Z,6.82
2023-05-21T05:44:25.324Z,7.82
2023-05-21T05:47:17.745Z,8.18
2023-05-21T05:50:09.992Z,7.32
2023-05-21T05:53:02.797Z,7.43
2023-05-21T05:55:56.016Z,7.65
2023-05-21T05:58:48.952Z,7.68
2023-05-21T06:01:44.015Z,8.82
2023-05-21T06:07:53.271Z,9.80
2023-05-21T06:14:00.736Z,10.13
2023-05-21T06:20:10.134Z,8.85
2023-05-21T06:23:03.135Z,11.70
2023-05-21T06:25:55.898Z,8.32
2023-05-21T06:28:48.918Z,9.57
2023-05-21T06:31:41.863Z,9.90
2023-05-21T06:34:35.087Z,12.18
2023-05-21T06:37:29.378Z,8.07
2023-05-21T06:40:22.732Z,10.60
2023-05-21T06:43:18.947Z,9.13
2023-05-21T06:46:42.803Z,9.95
2023-05-21T06:49:35.987Z,8.23
2023-05-21T06:52:31.631Z,11.05
2023-05-21T06:55:25.133Z,11.48
2023-05-21T06:58:39.608Z,9.70
2023-05-21T07:01:32.438Z,10.05
2023-05-21T07:04:26.512Z,10.27
2023-05-21T07:07:18.703Z,12.30
2023-05-21T07:10:13.171Z,9.73
2023-05-21T07:13:31.201Z,9.45
2023-05-21T07:16:24.170Z,9.73
2023-05-21T07:19:16.897Z,8.70
2023-05-21T07:25:19.575Z,8.88
2023-05-21T07:28:11.856Z,13.82
2023-05-21T07:31:14.813Z,9.35
2023-05-21T07:34:12.186Z,10.13
2023-05-21T07:40:10.060Z,10.25
2023-05-21T07:43:04.387Z,9.90
2023-05-21T07:48:52.750Z,13.30
2023-05-21T07:51:46.735Z,8.02
2023-05-21T07:55:12.903Z,9.50
2023-05-21T07:58:08.016Z,10.23
2023-05-21T08:01:26.008Z,9.20
2023-05-21T08:04:19.264Z,10.20
2023-05-21T08:07:13.635Z,9.27
2023-05-21T08:10:01.679Z,9.90
2023-05-21T08:12:49.452Z,9.82
2023-05-21T08:15:37.696Z,10.00
2023-05-21T08:21:41.306Z,11.52
2023-05-21T08:24:27.519Z,10.45
2023-05-21T08:27:16.002Z,11.90
2023-05-21T08:30:02.062Z,10.57
2023-05-21T08:32:49.909Z,14.77
2023-05-21T08:35:39.160Z,8.93
2023-05-21T08:41:54.590Z,12.95
2023-05-21T08:47:57.596Z,11.95
2023-05-21T08:53:58.408Z,10.90
2023-05-21T08:56:46.855Z,10.52
2023-05-21T08:59:35.859Z,11.25
2023-05-21T09:02:25.028Z,12.98
2023-05-21T09:05:13.305Z,9.68
2023-05-21T09:08:05.325Z,12.35
2023-05-21T09:10:57.398Z,13.20
2023-05-21T09:13:50.200Z,11.95
2023-05-21T09:16:43.799Z,10.65
2023-05-21T09:19:32.008Z,9.70
2023-05-21T09:22:24.345Z,11.65
2023-05-21T09:28:27.272Z,9.52
2023-05-21T09:31:13.149Z,13.10
2023-05-21T09:33:59.559Z,10.27
2023-05-21T09:36:46.940Z,10.13
2023-05-21T09:39:34.844Z,12.43
2023-05-21T09:42:23.381Z,9.38
2023-05-21T09:48:34.702Z,13.30
2023-05-21T09:51:22.230Z,13.57
2023-05-21T09:54:08.048Z,10.60
2023-05-21T09:56:55.742Z,11.35
2023-05-21T09:59:42.465Z,11.40
2023-05-21T10:02:29.985Z,9.80
2023-05-21T10:08:36.985Z,11.93
2023-05-21T10:14:36.972Z,11.88
2023-05-21T10:17:24.227Z,16.55
2023-05-21T10:23:23.949Z,15.07
2023-05-21T10:26:10.347Z,10.45
2023-05-21T10:28:58.403Z,10.82
2023-05-21T10:31:49.208Z,10.48
2023-05-21T10:34:35.962Z,12.25
2023-05-21T10:37:24.518Z,11.30
2023-05-21T10:40:11.612Z,16.63
2023-05-21T10:46:33.079Z,18.13
2023-05-21T10:49:31.298Z,11.07
2023-05-21T10:52:26.135Z,10.77
2023-05-21T10:58:40.484Z,12.75
2023-05-21T11:01:28.674Z,11.57
2023-05-21T11:04:15.695Z,10.90
2023-05-21T11:07:03.083Z,14.30
2023-05-21T11:13:17.180Z,11.00
2023-05-21T11:16:15.671Z,11.40
2023-05-21T11:22:26.478Z,12.63
2023-05-21T11:25:19.682Z,12.43
2023-05-21T11:28:11.947Z,12.52
2023-05-21T11:31:24.095Z,12.20
2023-05-21T11:34:20.109Z,10.77
2023-05-21T11:40:36.682Z,11.75
2023-05-21T11:43:29.903Z,13.00
2023-05-21T11:46:22.635Z,11.23
2023-05-21T11:49:16.470Z,11.95
2023-05-21T11:52:10.499Z,12.80
2023-05-21T11:55:02.829Z,11.27
2023-05-21T12:01:45.011Z,11.80
2023-05-21T12:04:52.984Z,12.95
2023-05-21T12:07:48.432Z,14.20
2023-05-21T12:14:01.931Z,12.82
2023-05-21T12:16:56.619Z,13.07
2023-05-21T12:19:50.600Z,11.55
2023-05-21T12:22:44.076Z,11.10
2023-05-21T12:26:14.266Z,12.97
2023-05-21T12:29:07.328Z,11.95
2023-05-21T12:32:37.293Z,14.70
2023-05-21T12:35:31.746Z,13.80
2023-05-21T12:41:27.892Z,13.32
2023-05-21T12:44:20.921Z,11.30
2023-05-21T12:47:15.783Z,11.93
2023-05-21T12:50:11.609Z,15.25
2023-05-21T12:53:05.551Z,11.60
2023-05-21T12:56:08.798Z,12.30
2023-05-21T12:59:00.658Z,12.18
2023-05-21T13:05:06.627Z,13.15
2023-05-21T13:07:58.950Z,12.70
2023-05-21T13:10:53.689Z,12.88
2023-05-21T13:13:46.321Z,12.77
2023-05-21T13:16:38.939Z,12.63
2023-05-21T13:19:32.057Z,12.55
2023-05-21T13:22:50.398Z,15.52
2023-05-21T13:25:43.092Z,13.55
2023-05-21T13:28:37.528Z,11.90
2023-05-21T13:31:30.003Z,12.07
2023-05-21T13:34:23.193Z,12.88
2023-05-21T13:37:16.293Z,11.65
2023-05-21T13:40:11.908Z,13.95
2023-05-21T13:43:05.291Z,14.23
2023-05-21T13:46:22.165Z,13.20
2023-05-21T13:49:10.179Z,15.68
2023-05-21T13:55:11.867Z,15.10
2023-05-21T13:58:04.331Z,14.32
2023-05-21T14:00:57.211Z,14.65
2023-05-21T14:03:49.960Z,13.65
2023-05-21T14:06:44.559Z,15.98
2023-05-21T14:09:31.303Z,14.13
2023-05-21T14:12:23.739Z,12.93
2023-05-21T14:15:16.209Z,13.80
2023-05-21T14:18:12.119Z,12.85
2023-05-21T14:21:04.994Z,15.65
2023-05-21T14:23:59.641Z,15.88
2023-05-21T14:30:09.539Z,13.07
2023-05-21T14:33:02.110Z,14.45
2023-05-21T14:35:54.927Z,16.00
2023-05-21T14:38:48.280Z,17.83
2023-05-21T14:41:42.663Z,13.85
2023-05-21T14:44:45.550Z,17.55
2023-05-21T14:47:32.291Z,16.02
2023-05-21T14:53:32.209Z,14.00
2023-05-21T14:59:43.052Z,19.77
2023-05-21T15:02:36.180Z,15.27
2023-05-21T15:05:29.998Z,16.17
2023-05-21T15:08:23.114Z,14.85
2023-05-21T15:11:16.283Z,17.05
2023-05-21T15:14:09.132Z,14.30
2023-05-21T15:17:03.332Z,15.77
2023-05-21T15:19:56.146Z,15.25
2023-05-21T15:22:49.167Z,13.63
2023-05-21T15:25:41.903Z,15.40
2023-05-21T15:28:28.836Z,13.85
2023-05-21T15:31:22.017Z,14.65
2023-05-21T15:34:17.843Z,13.68
2023-05-21T15:40:03.110Z,15.23
2023-05-21T15:42:56.109Z,12.95
2023-05-21T15:46:26.370Z,16.60
2023-05-21T15:49:20.608Z,13.52
2023-05-21T15:55:16.425Z,13.52
2023-05-21T16:01:22.097Z,13.63
2023-05-21T16:10:25.651Z,14.43
2023-05-21T16:13:18.193Z,12.82
2023-05-21T16:16:11.160Z,14.63
2023-05-21T16:19:03.850Z,12.23
2023-05-21T16:22:01.202Z,13.25
2023-05-21T16:24:54.635Z,13.80
2023-05-21T16:27:48.415Z,15.23
2023-05-21T16:30:41.139Z,14.57
2023-05-21T16:33:34.359Z,13.68
2023-05-21T16:36:27.044Z,12.18
2023-05-21T16:42:50.122Z,16.95
2023-05-21T16:46:06.098Z,12.35
2023-05-21T16:48:54.012Z,13.57
2023-05-21T16:55:34.675Z,11.85
2023-05-21T16:58:29.652Z,12.60
2023-05-21T17:01:21.740Z,14.38
2023-05-21T17:04:13.985Z,16.13
2023-05-21T17:07:07.026Z,13.07
2023-05-21T17:10:00.254Z,12.55
2023-05-21T17:16:10.687Z,11.77
2023-05-21T17:19:03.209Z,12.50
2023-05-21T17:21:52.142Z,10.70
2023-05-21T17:24:45.072Z,10.90
2023-05-21T17:30:54.352Z,13.05
2023-05-21T17:33:48.624Z,12.40
2023-05-21T17:36:41.181Z,13.95
2023-05-21T17:39:33.865Z,12.32
2023-05-21T17:42:26.940Z,10.60
2023-05-21T17:45:19.912Z,11.48
2023-05-21T17:48:13.193Z,11.70
2023-05-21T17:51:07.422Z,11.52
2023-05-21T17:53:59.983Z,12.57
2023-05-21T17:56:52.857Z,12.82
2023-05-21T17:59:46.142Z,11.30
2023-05-21T18:02:39.332Z,11.77
2023-05-21T18:05:49.370Z,9.80
2023-05-21T18:08:40.643Z,10.32
2023-05-21T18:11:33.100Z,16.63
2023-05-21T18:14:26.281Z,23.88
2023-05-21T18:17:19.356Z,11.40
2023-05-21T18:20:13.514Z,13.98
2023-05-21T18:23:06.069Z,11.00
2023-05-21T18:26:00.360Z,10.60
2023-05-21T18:28:53.401Z,11.85
2023-05-21T18:31:46.309Z,12.55
2023-05-21T18:34:41.476Z,13.48
2023-05-21T18:37:34.149Z,13.40
2023-05-21T18:40:30.565Z,15.75
2023-05-21T18:43:24.354Z,10.75
2023-05-21T18:46:17.326Z,12.35
2023-05-21T18:49:09.787Z,12.13
2023-05-21T18:52:02.023Z,11.88
2023-05-21T18:54:55.251Z,12.38
2023-05-21T18:57:48.128Z,11.18
2023-05-21T19:00:43.259Z,12.25
2023-05-21T19:06:48.472Z,12.70
2023-05-21T19:09:41.234Z,12.88
2023-05-21T19:12:35.987Z,20.38
2023-05-21T19:15:29.144Z,12.82
2023-05-21T19:18:29.961Z,11.90
2023-05-21T19:21:22.741Z,13.10
2023-05-21T19:24:15.440Z,15.73
2023-05-21T19:27:07.709Z,14.63
2023-05-21T19:29:54.248Z,12.32
2023-05-21T19:32:47.617Z,14.48
2023-05-21T19:35:43.153Z,13.63
2023-05-21T19:41:29.119Z,14.50
2023-05-21T19:44:22.068Z,13.63
2023-05-21T19:47:14.918Z,12.52
2023-05-21T19:50:09.288Z,15.48
2023-05-21T19:53:03.478Z,14.48
2023-05-21T19:55:56.441Z,14.60
2023-05-21T19:58:48.998Z,15.30
2023-05-21T20:01:44.096Z,15.05
2023-05-21T20:04:37.002Z,16.30
2023-05-21T20:07:30.379Z,16.15
2023-05-21T20:10:24.414Z,15.77
2023-05-21T20:13:31.577Z,14.90
2023-05-21T20:16:24.341Z,14.25
2023-05-21T20:22:42.298Z,17.30
2023-05-21T20:29:01.390Z,15.25
2023-05-21T20:31:54.148Z,17.40
2023-05-21T20:38:02.012Z,15.43
2023-05-21T20:40:55.831Z,15.10
2023-05-21T20:43:48.350Z,13.55
2023-05-21T20:49:54.785Z,14.40
2023-05-21T20:52:47.539Z,12.90
2023-05-21T20:55:44.366Z,15.13
2023-05-21T20:58:39.762Z,14.05
2023-05-21T21:01:32.736Z,14.20
2023-05-21T21:04:25.565Z,11.93
2023-05-21T21:07:19.971Z,14.30
2023-05-21T21:10:13.323Z,13.63
2023-05-21T21:16:27.365Z,13.73
2023-05-21T21:22:30.525Z,13.57
2023-05-21T21:31:32.387Z,14.98
2023-05-21T21:34:25.410Z,14.45
2023-05-21T21:37:18.353Z,15.15
2023-05-21T21:40:14.123Z,15.32
2023-05-21T21:46:00.939Z,15.18
2023-05-21T21:52:15.205Z,14.80
2023-05-21T21:58:35.402Z,18.33
2023-05-21T22:01:28.282Z,17.00
2023-05-21T22:04:20.930Z,17.15
2023-05-21T22:07:18.061Z,18.73
2023-05-21T22:10:11.558Z,15.65
2023-05-21T22:13:04.720Z,14.65
2023-05-21T22:15:58.530Z,14.73
2023-05-21T22:18:51.156Z,13.15
2023-05-21T22:21:46.517Z,18.23
2023-05-21T22:27:55.408Z,13.27
2023-05-21T22:34:05.726Z,15.93
2023-05-21T22:36:58.071Z,13.82
2023-05-21T22:39:45.758Z,14.68
2023-05-21T22:42:38.131Z,14.60
2023-05-21T22:45:31.483Z,14.20
2023-05-21T22:48:23.951Z,13.40
2023-05-21T22:51:18.447Z,14.45
2023-05-21T22:54:11.130Z,15.52
2023-05-21T22:57:04.191Z,14.00
2023-05-21T22:59:56.867Z,15.10
2023-05-21T23:02:53.055Z,12.88
2023-05-21T23:05:47.286Z,14.93
2023-05-21T23:08:41.235Z,17.15
2023-05-21T23:12:11.351Z,15.57
2023-05-21T23:15:05.296Z,14.55
2023-05-21T23:17:58.285Z,13.90
2023-05-21T23:20:51.314Z,14.48
2023-05-21T23:23:45.630Z,13.20
2023-05-21T23:26:42.714Z,15.57
2023-05-21T23:29:35.307Z,13.52
2023-05-21T23:32:27.980Z,14.35
2023-05-21T23:35:21.088Z,13.05
2023-05-21T23:38:13.961Z,14.35
2023-05-21T23:41:08.415Z,15.10
2023-05-21T23:44:01.244Z,19.02
2023-05-21T23:50:15.776Z,13.98
2023-05-21T23:56:16.384Z,16.27
2023-05-21T23:59:09.362Z,14.23
